sensor_id;sensor_type;location;lat;lon;timestamp;pressure;altitude;pressure_sealevel;temperature;humidity
36062;BME280;22123;52.412;20.970;2023-02-01T00:01:55;99110.78;;;0.41;100.00
36062;BME280;22123;52.412;20.970;2023-02-01T00:04:21;99281.66;;;1.43;100.00
36062;BME280;22123;52.412;20.970;2023-02-01T00:06:47;99253.06;;;1.27;100.00
36062;BME280;22123;52.412;20.970;2023-02-01T00:09:13;99329.59;;;1.79;100.00
36062;BME280;22123;52.412;20.970;2023-02-01T00:11:39;99220.56;;;1.15;100.00
36062;BME280;22123;52.412;20.970;2023-02-01T00:14:05;99146.03;;;0.71;100.00
36062;BME280;22123;52.412;20.970;2023-02-01T00:16:32;99209.16;;;1.15;100.00
36062;BME280;22123;52.412;20.970;2023-02-01T00:19:03;99207.06;;;1.09;100.00
36062;BME280;22123;52.412;20.970;2023-02-01T00:21:30;99216.09;;;1.26;100.00
36062;BME280;22123;52.412;20.970;2023-02-01T00:23:56;99232.44;;;1.11;100.00
36062;BME280;22123;52.412;20.970;2023-02-01T00:28:53;99223.66;;;1.20;100.00
36062;BME280;22123;52.412;20.970;2023-02-01T00:31:19;99296.72;;;1.52;100.00
36062;BME280;22123;52.412;20.970;2023-02-01T00:33:47;99270.75;;;1.46;100.00
36062;BME280;22123;52.412;20.970;2023-02-01T00:36:13;99238.97;;;1.27;100.00
36062;BME280;22123;52.412;20.970;2023-02-01T00:38:39;99305.50;;;1.63;100.00
36062;BME280;22123;52.412;20.970;2023-02-01T00:41:16;99353.31;;;1.90;100.00
36062;BME280;22123;52.412;20.970;2023-02-01T00:43:43;99355.31;;;1.88;100.00
36062;BME280;22123;52.412;20.970;2023-02-01T00:46:10;99376.38;;;1.90;100.00
36062;BME280;22123;52.412;20.970;2023-02-01T00:48:37;99356.81;;;1.91;100.00
36062;BME280;22123;52.412;20.970;2023-02-01T00:51:07;99002.69;;;-0.42;100.00
36062;BME280;22123;52.412;20.970;2023-02-01T00:53:33;99266.03;;;1.30;100.00
36062;BME280;22123;52.412;20.970;2023-02-01T00:56:00;99324.06;;;1.53;100.00
36062;BME280;22123;52.412;20.970;2023-02-01T00:58:26;99241.09;;;0.94;100.00
36062;BME280;22123;52.412;20.970;2023-02-01T01:03:41;99349.34;;;1.47;100.00
36062;BME280;22123;52.412;20.970;2023-02-01T01:06:11;99263.56;;;0.90;100.00
36062;BME280;22123;52.412;20.970;2023-02-01T01:08:39;99365.41;;;1.46;100.00
36062;BME280;22123;52.412;20.970;2023-02-01T01:11:11;99337.78;;;1.19;100.00
36062;BME280;22123;52.412;20.970;2023-02-01T01:13:37;99286.41;;;0.81;100.00
36062;BME280;22123;52.412;20.970;2023-02-01T01:16:04;99371.56;;;1.27;100.00
36062;BME280;22123;52.412;20.970;2023-02-01T01:18:31;99222.25;;;0.28;100.00
36062;BME280;22123;52.412;20.970;2023-02-01T01:20:58;99379.66;;;1.25;100.00
36062;BME280;22123;52.412;20.970;2023-02-01T01:23:24;99336.22;;;0.97;100.00
36062;BME280;22123;52.412;20.970;2023-02-01T01:25:50;99301.34;;;0.82;100.00
36062;BME280;22123;52.412;20.970;2023-02-01T01:28:16;99395.56;;;1.35;100.00
36062;BME280;22123;52.412;20.970;2023-02-01T01:30:42;99379.94;;;1.32;100.00
36062;BME280;22123;52.412;20.970;2023-02-01T01:33:08;99387.91;;;1.32;100.00
36062;BME280;22123;52.412;20.970;2023-02-01T01:35:34;99351.75;;;1.01;100.00
36062;BME280;22123;52.412;20.970;2023-02-01T01:38:00;99328.16;;;0.89;100.00
36062;BME280;22123;52.412;20.970;2023-02-01T01:40:28;99403.66;;;1.33;100.00
36062;BME280;22123;52.412;20.970;2023-02-01T01:42:54;99200.78;;;0.12;100.00
36062;BME280;22123;52.412;20.970;2023-02-01T01:45:34;99413.44;;;1.43;100.00
36062;BME280;22123;52.412;20.970;2023-02-01T01:48:27;99256.56;;;0.49;100.00
36062;BME280;22123;52.412;20.970;2023-02-01T01:51:08;99309.16;;;0.83;100.00
36062;BME280;22123;52.412;20.970;2023-02-01T01:53:40;99226.16;;;0.34;100.00
36062;BME280;22123;52.412;20.970;2023-02-01T01:56:07;99237.88;;;0.41;100.00
36062;BME280;22123;52.412;20.970;2023-02-01T01:58:33;99346.84;;;1.07;100.00
36062;BME280;22123;52.412;20.970;2023-02-01T02:00:59;99286.81;;;0.66;100.00
36062;BME280;22123;52.412;20.970;2023-02-01T02:03:30;99398.09;;;1.36;100.00
36062;BME280;22123;52.412;20.970;2023-02-01T02:05:58;99344.59;;;0.92;100.00
36062;BME280;22123;52.412;20.970;2023-02-01T02:08:26;99400.72;;;1.36;100.00
36062;BME280;22123;52.412;20.970;2023-02-01T02:10:53;99353.09;;;1.06;100.00
36062;BME280;22123;52.412;20.970;2023-02-01T02:13:19;99262.13;;;0.46;100.00
36062;BME280;22123;52.412;20.970;2023-02-01T02:24:26;99416.50;;;1.38;100.00
36062;BME280;22123;52.412;20.970;2023-02-01T02:26:51;99272.31;;;0.51;100.00
36062;BME280;22123;52.412;20.970;2023-02-01T02:29:49;99415.94;;;1.34;100.00
36062;BME280;22123;52.412;20.970;2023-02-01T02:32:26;99422.78;;;1.37;100.00
36062;BME280;22123;52.412;20.970;2023-02-01T02:35:30;99418.16;;;1.39;100.00
36062;BME280;22123;52.412;20.970;2023-02-01T02:38:12;99326.59;;;0.76;100.00
36062;BME280;22123;52.412;20.970;2023-02-01T02:43:48;99356.91;;;1.03;100.00
36062;BME280;22123;52.412;20.970;2023-02-01T02:46:24;99376.56;;;1.20;100.00
36062;BME280;22123;52.412;20.970;2023-02-01T02:49:58;99336.53;;;1.03;100.00
36062;BME280;22123;52.412;20.970;2023-02-01T02:52:22;99287.25;;;0.62;100.00
36062;BME280;22123;52.412;20.970;2023-02-01T02:54:50;99424.59;;;1.46;100.00
36062;BME280;22123;52.412;20.970;2023-02-01T02:57:27;99330.81;;;0.89;100.00
36062;BME280;22123;52.412;20.970;2023-02-01T02:59:55;99424.47;;;1.48;100.00
36062;BME280;22123;52.412;20.970;2023-02-01T03:02:25;99358.16;;;1.09;100.00
36062;BME280;22123;52.412;20.970;2023-02-01T03:04:54;99412.03;;;1.38;100.00
36062;BME280;22123;52.412;20.970;2023-02-01T03:10:16;99288.63;;;0.56;100.00
36062;BME280;22123;52.412;20.970;2023-02-01T03:12:43;99336.50;;;0.94;100.00
36062;BME280;22123;52.412;20.970;2023-02-01T03:15:11;99380.22;;;1.19;100.00
36062;BME280;22123;52.412;20.970;2023-02-01T03:17:41;99328.53;;;0.74;100.00
36062;BME280;22123;52.412;20.970;2023-02-01T03:20:10;99428.22;;;1.55;100.00
36062;BME280;22123;52.412;20.970;2023-02-01T03:22:40;99262.13;;;0.46;100.00
36062;BME280;22123;52.412;20.970;2023-02-01T03:25:25;99433.69;;;1.44;100.00
36062;BME280;22123;52.412;20.970;2023-02-01T03:27:57;99325.28;;;0.61;100.00
36062;BME280;22123;52.412;20.970;2023-02-01T03:30:28;99439.00;;;1.44;100.00
36062;BME280;22123;52.412;20.970;2023-02-01T03:33:00;99448.88;;;1.42;100.00
36062;BME280;22123;52.412;20.970;2023-02-01T03:35:53;99442.16;;;1.37;100.00
36062;BME280;22123;52.412;20.970;2023-02-01T03:41:18;99453.34;;;1.31;100.00
36062;BME280;22123;52.412;20.970;2023-02-01T03:43:55;99438.69;;;1.17;100.00
36062;BME280;22123;52.412;20.970;2023-02-01T03:46:30;99450.00;;;1.29;100.00
36062;BME280;22123;52.412;20.970;2023-02-01T03:49:00;99448.31;;;1.28;100.00
36062;BME280;22123;52.412;20.970;2023-02-01T03:51:28;99364.41;;;0.78;100.00
36062;BME280;22123;52.412;20.970;2023-02-01T03:53:56;99346.75;;;0.58;100.00
36062;BME280;22123;52.412;20.970;2023-02-01T03:56:24;99284.22;;;0.16;100.00
36062;BME280;22123;52.412;20.970;2023-02-01T03:58:52;99315.22;;;0.35;100.00
36062;BME280;22123;52.412;20.970;2023-02-01T04:01:18;99427.47;;;0.94;100.00
36062;BME280;22123;52.412;20.970;2023-02-01T04:03:44;99420.75;;;1.00;100.00
36062;BME280;22123;52.412;20.970;2023-02-01T04:06:10;99395.47;;;0.76;100.00
36062;BME280;22123;52.412;20.970;2023-02-01T04:08:36;99408.50;;;0.99;100.00
36062;BME280;22123;52.412;20.970;2023-02-01T04:11:02;99441.44;;;1.16;100.00
36062;BME280;22123;52.412;20.970;2023-02-01T04:13:27;99387.81;;;0.83;100.00
36062;BME280;22123;52.412;20.970;2023-02-01T04:15:53;99463.25;;;1.29;100.00
36062;BME280;22123;52.412;20.970;2023-02-01T04:18:19;99386.84;;;0.94;100.00
36062;BME280;22123;52.412;20.970;2023-02-01T04:20:45;99430.44;;;1.20;100.00
36062;BME280;22123;52.412;20.970;2023-02-01T04:23:11;99362.84;;;0.76;100.00
36062;BME280;22123;52.412;20.970;2023-02-01T04:25:37;99349.28;;;0.69;100.00
36062;BME280;22123;52.412;20.970;2023-02-01T04:28:03;99361.31;;;0.73;100.00
36062;BME280;22123;52.412;20.970;2023-02-01T04:30:29;99459.22;;;1.35;100.00
36062;BME280;22123;52.412;20.970;2023-02-01T04:32:55;99258.00;;;0.13;100.00
36062;BME280;22123;52.412;20.970;2023-02-01T04:35:21;99378.09;;;0.93;100.00
36062;BME280;22123;52.412;20.970;2023-02-01T04:37:46;99355.59;;;0.78;100.00
36062;BME280;22123;52.412;20.970;2023-02-01T04:40:12;99345.00;;;0.78;100.00
36062;BME280;22123;52.412;20.970;2023-02-01T04:42:38;99410.19;;;1.19;100.00
36062;BME280;22123;52.412;20.970;2023-02-01T04:45:05;99470.41;;;1.58;100.00
36062;BME280;22123;52.412;20.970;2023-02-01T04:47:31;99374.31;;;1.06;100.00
36062;BME280;22123;52.412;20.970;2023-02-01T04:49:57;99408.13;;;1.33;100.00
36062;BME280;22123;52.412;20.970;2023-02-01T04:52:22;99389.44;;;1.25;100.00
36062;BME280;22123;52.412;20.970;2023-02-01T04:54:48;99401.84;;;1.34;100.00
36062;BME280;22123;52.412;20.970;2023-02-01T04:57:14;99467.34;;;1.63;100.00
36062;BME280;22123;52.412;20.970;2023-02-01T04:59:40;99408.00;;;1.25;100.00
36062;BME280;22123;52.412;20.970;2023-02-01T05:02:06;99440.94;;;1.51;100.00
36062;BME280;22123;52.412;20.970;2023-02-01T05:04:33;99445.00;;;1.65;100.00
36062;BME280;22123;52.412;20.970;2023-02-01T05:06:59;99366.22;;;1.07;100.00
36062;BME280;22123;52.412;20.970;2023-02-01T05:09:25;99351.31;;;0.96;100.00
36062;BME280;22123;52.412;20.970;2023-02-01T05:11:50;99461.16;;;1.62;100.00
36062;BME280;22123;52.412;20.970;2023-02-01T05:14:16;99455.19;;;1.60;100.00
36062;BME280;22123;52.412;20.970;2023-02-01T05:16:42;99416.22;;;1.31;100.00
36062;BME280;22123;52.412;20.970;2023-02-01T05:19:08;99382.44;;;1.14;100.00
36062;BME280;22123;52.412;20.970;2023-02-01T05:21:34;99420.13;;;1.47;100.00
36062;BME280;22123;52.412;20.970;2023-02-01T05:24:00;99427.53;;;1.53;100.00
36062;BME280;22123;52.412;20.970;2023-02-01T05:26:26;99411.88;;;1.40;100.00
36062;BME280;22123;52.412;20.970;2023-02-01T05:28:51;99474.31;;;1.83;100.00
36062;BME280;22123;52.412;20.970;2023-02-01T05:31:18;99462.72;;;1.74;100.00
36062;BME280;22123;52.412;20.970;2023-02-01T05:33:43;99434.63;;;1.62;100.00
36062;BME280;22123;52.412;20.970;2023-02-01T05:36:09;99292.16;;;0.86;100.00
36062;BME280;22123;52.412;20.970;2023-02-01T05:38:35;99337.34;;;1.04;100.00
36062;BME280;22123;52.412;20.970;2023-02-01T05:41:01;99332.88;;;0.95;100.00
36062;BME280;22123;52.412;20.970;2023-02-01T05:43:27;99465.91;;;1.78;100.00
36062;BME280;22123;52.412;20.970;2023-02-01T05:45:53;99422.50;;;1.50;100.00
36062;BME280;22123;52.412;20.970;2023-02-01T05:48:19;99411.06;;;1.49;100.00
36062;BME280;22123;52.412;20.970;2023-02-01T05:50:45;99411.91;;;1.50;100.00
36062;BME280;22123;52.412;20.970;2023-02-01T05:53:11;99442.06;;;1.59;100.00
36062;BME280;22123;52.412;20.970;2023-02-01T05:55:37;99348.53;;;1.17;100.00
36062;BME280;22123;52.412;20.970;2023-02-01T05:58:04;99387.44;;;1.46;100.00
36062;BME280;22123;52.412;20.970;2023-02-01T06:00:30;99448.19;;;1.79;100.00
36062;BME280;22123;52.412;20.970;2023-02-01T06:02:56;99406.59;;;1.50;100.00
36062;BME280;22123;52.412;20.970;2023-02-01T06:05:22;99400.84;;;1.45;100.00
36062;BME280;22123;52.412;20.970;2023-02-01T06:07:48;99346.84;;;1.07;100.00
36062;BME280;22123;52.412;20.970;2023-02-01T06:10:14;99469.16;;;1.82;100.00
36062;BME280;22123;52.412;20.970;2023-02-01T06:12:40;99460.59;;;1.78;100.00
36062;BME280;22123;52.412;20.970;2023-02-01T06:15:06;99344.75;;;1.00;100.00
36062;BME280;22123;52.412;20.970;2023-02-01T06:17:32;99267.72;;;0.63;100.00
36062;BME280;22123;52.412;20.970;2023-02-01T06:19:58;99312.78;;;0.82;100.00
36062;BME280;22123;52.412;20.970;2023-02-01T06:22:24;99391.25;;;1.44;100.00
36062;BME280;22123;52.412;20.970;2023-02-01T06:24:50;99354.66;;;1.18;100.00
36062;BME280;22123;52.412;20.970;2023-02-01T06:27:16;99347.56;;;1.09;100.00
36062;BME280;22123;52.412;20.970;2023-02-01T06:29:42;99409.25;;;1.50;100.00
36062;BME280;22123;52.412;20.970;2023-02-01T06:32:08;99368.75;;;1.28;100.00
36062;BME280;22123;52.412;20.970;2023-02-01T06:34:34;99457.97;;;1.88;100.00
36062;BME280;22123;52.412;20.970;2023-02-01T06:37:00;99411.19;;;1.58;100.00
36062;BME280;22123;52.412;20.970;2023-02-01T06:39:26;99465.38;;;1.84;100.00
36062;BME280;22123;52.412;20.970;2023-02-01T06:41:52;99430.34;;;1.61;100.00
36062;BME280;22123;52.412;20.970;2023-02-01T06:44:20;99423.91;;;1.64;100.00
36062;BME280;22123;52.412;20.970;2023-02-01T06:46:45;99396.94;;;1.49;100.00
36062;BME280;22123;52.412;20.970;2023-02-01T06:49:11;99384.69;;;1.48;100.00
36062;BME280;22123;52.412;20.970;2023-02-01T06:51:37;99398.78;;;1.58;100.00
36062;BME280;22123;52.412;20.970;2023-02-01T06:54:03;99411.06;;;1.49;100.00
36062;BME280;22123;52.412;20.970;2023-02-01T06:56:29;99471.22;;;1.88;100.00
36062;BME280;22123;52.412;20.970;2023-02-01T06:58:55;99394.28;;;1.49;100.00
36062;BME280;22123;52.412;20.970;2023-02-01T07:01:21;99339.44;;;1.20;100.00
36062;BME280;22123;52.412;20.970;2023-02-01T07:03:50;99428.78;;;1.68;100.00
36062;BME280;22123;52.412;20.970;2023-02-01T07:06:16;99446.81;;;1.74;100.00
36062;BME280;22123;52.412;20.970;2023-02-01T07:08:43;99467.03;;;1.85;100.00
36062;BME280;22123;52.412;20.970;2023-02-01T07:11:10;99351.19;;;1.17;100.00
36062;BME280;22123;52.412;20.970;2023-02-01T07:13:37;99412.19;;;1.47;100.00
36062;BME280;22123;52.412;20.970;2023-02-01T07:16:05;99465.25;;;1.86;100.00
36062;BME280;22123;52.412;20.970;2023-02-01T07:18:32;99363.03;;;1.23;100.00
36062;BME280;22123;52.412;20.970;2023-02-01T07:20:58;99447.63;;;1.75;100.00
36062;BME280;22123;52.412;20.970;2023-02-01T07:23:24;99413.59;;;1.51;100.00
36062;BME280;22123;52.412;20.970;2023-02-01T07:25:58;99466.22;;;1.85;100.00
36062;BME280;22123;52.412;20.970;2023-02-01T07:28:25;99435.50;;;1.63;100.00
36062;BME280;22123;52.412;20.970;2023-02-01T07:30:52;99484.50;;;1.88;100.00
36062;BME280;22123;52.412;20.970;2023-02-01T07:33:22;99476.53;;;1.88;100.00
36062;BME280;22123;52.412;20.970;2023-02-01T07:35:49;99429.63;;;1.49;100.00
36062;BME280;22123;52.412;20.970;2023-02-01T07:38:16;99472.78;;;1.71;100.00
36062;BME280;22123;52.412;20.970;2023-02-01T07:40:42;99451.28;;;1.64;100.00
36062;BME280;22123;52.412;20.970;2023-02-01T07:43:09;99432.69;;;1.45;100.00
36062;BME280;22123;52.412;20.970;2023-02-01T07:45:35;99386.34;;;1.29;100.00
36062;BME280;22123;52.412;20.970;2023-02-01T07:48:02;99451.00;;;1.67;100.00
36062;BME280;22123;52.412;20.970;2023-02-01T07:50:29;99463.00;;;1.81;100.00
36062;BME280;22123;52.412;20.970;2023-02-01T07:52:55;99459.25;;;1.74;100.00
36062;BME280;22123;52.412;20.970;2023-02-01T07:55:23;99411.22;;;1.48;100.00
36062;BME280;22123;52.412;20.970;2023-02-01T07:57:49;99428.94;;;1.57;100.00
36062;BME280;22123;52.412;20.970;2023-02-01T08:00:15;99455.19;;;1.80;100.00
36062;BME280;22123;52.412;20.970;2023-02-01T08:02:41;99436.75;;;1.68;100.00
36062;BME280;22123;52.412;20.970;2023-02-01T08:05:07;99375.03;;;1.27;100.00
36062;BME280;22123;52.412;20.970;2023-02-01T08:07:33;99431.16;;;1.62;100.00
36062;BME280;22123;52.412;20.970;2023-02-01T08:09:59;99453.75;;;1.85;100.00
36062;BME280;22123;52.412;20.970;2023-02-01T08:12:25;99362.63;;;1.28;100.00
36062;BME280;22123;52.412;20.970;2023-02-01T08:14:51;99390.81;;;1.48;100.00
36062;BME280;22123;52.412;20.970;2023-02-01T08:17:17;99406.72;;;1.68;100.00
36062;BME280;22123;52.412;20.970;2023-02-01T08:19:43;99375.44;;;1.52;100.00
36062;BME280;22123;52.412;20.970;2023-02-01T08:22:09;99416.06;;;1.91;100.00
36062;BME280;22123;52.412;20.970;2023-02-01T08:24:35;99457.50;;;2.22;100.00
36062;BME280;22123;52.412;20.970;2023-02-01T08:27:01;99372.38;;;1.66;100.00
36062;BME280;22123;52.412;20.970;2023-02-01T08:29:27;99379.44;;;1.85;100.00
36062;BME280;22123;52.412;20.970;2023-02-01T08:31:53;99377.66;;;1.76;100.00
36062;BME280;22123;52.412;20.970;2023-02-01T08:34:19;99441.00;;;2.18;100.00
36062;BME280;22123;52.412;20.970;2023-02-01T08:36:45;99464.59;;;2.31;100.00
36062;BME280;22123;52.412;20.970;2023-02-01T08:39:11;99423.97;;;2.11;100.00
36062;BME280;22123;52.412;20.970;2023-02-01T08:41:37;99393.72;;;1.94;100.00
36062;BME280;22123;52.412;20.970;2023-02-01T08:44:03;99364.81;;;1.71;100.00
36062;BME280;22123;52.412;20.970;2023-02-01T08:46:29;99410.19;;;1.98;100.00
36062;BME280;22123;52.412;20.970;2023-02-01T08:48:55;99460.00;;;2.33;100.00
36062;BME280;22123;52.412;20.970;2023-02-01T08:51:22;99371.25;;;1.79;100.00
36062;BME280;22123;52.412;20.970;2023-02-01T08:53:48;99394.16;;;1.80;100.00
36062;BME280;22123;52.412;20.970;2023-02-01T08:56:15;99464.38;;;2.15;100.00
36062;BME280;22123;52.412;20.970;2023-02-01T08:58:42;99320.22;;;1.28;100.00
36062;BME280;22123;52.412;20.970;2023-02-01T09:01:10;99463.94;;;2.09;100.00
36062;BME280;22123;52.412;20.970;2023-02-01T09:03:36;99473.31;;;2.04;100.00
36062;BME280;22123;52.412;20.970;2023-02-01T09:06:04;99426.97;;;1.79;100.00
36062;BME280;22123;52.412;20.970;2023-02-01T09:08:30;99384.66;;;1.58;100.00
36062;BME280;22123;52.412;20.970;2023-02-01T09:11:04;99366.50;;;1.43;100.00
36062;BME280;22123;52.412;20.970;2023-02-01T09:13:30;99426.69;;;1.82;100.00
36062;BME280;22123;52.412;20.970;2023-02-01T09:15:56;99377.94;;;1.63;100.00
36062;BME280;22123;52.412;20.970;2023-02-01T09:18:22;99367.19;;;1.65;100.00
36062;BME280;22123;52.412;20.970;2023-02-01T09:20:48;99383.22;;;1.92;100.00
36062;BME280;22123;52.412;20.970;2023-02-01T09:23:15;99393.50;;;2.15;100.00
36062;BME280;22123;52.412;20.970;2023-02-01T09:25:41;99360.50;;;2.18;100.00
36062;BME280;22123;52.412;20.970;2023-02-01T09:28:07;99385.72;;;2.41;100.00
36062;BME280;22123;52.412;20.970;2023-02-01T09:30:33;99375.50;;;2.47;100.00
36062;BME280;22123;52.412;20.970;2023-02-01T09:32:59;99361.44;;;2.64;100.00
36062;BME280;22123;52.412;20.970;2023-02-01T09:35:24;99419.41;;;3.24;100.00
36062;BME280;22123;52.412;20.970;2023-02-01T09:37:52;99436.41;;;3.59;100.00
36062;BME280;22123;52.412;20.970;2023-02-01T09:40:19;99449.47;;;3.53;100.00
36062;BME280;22123;52.412;20.970;2023-02-01T09:45:20;99437.06;;;3.61;100.00
36062;BME280;22123;52.412;20.970;2023-02-01T09:47:54;99450.44;;;3.52;100.00
36062;BME280;22123;52.412;20.970;2023-02-01T09:50:28;99379.72;;;2.95;100.00
36062;BME280;22123;52.412;20.970;2023-02-01T09:53:12;99416.81;;;3.15;100.00
36062;BME280;22123;52.412;20.970;2023-02-01T09:55:43;99460.22;;;3.33;100.00
36062;BME280;22123;52.412;20.970;2023-02-01T09:58:17;99455.22;;;3.30;100.00
36062;BME280;22123;52.412;20.970;2023-02-01T10:00:51;99469.94;;;3.24;100.00
36062;BME280;22123;52.412;20.970;2023-02-01T10:03:18;99407.44;;;2.92;100.00
36062;BME280;22123;52.412;20.970;2023-02-01T10:06:13;99460.16;;;3.25;100.00
36062;BME280;22123;52.412;20.970;2023-02-01T10:08:54;99460.63;;;3.20;100.00
36062;BME280;22123;52.412;20.970;2023-02-01T10:14:39;99378.75;;;2.68;100.00
36062;BME280;22123;52.412;20.970;2023-02-01T10:20:21;99460.97;;;3.07;100.00
36062;BME280;22123;52.412;20.970;2023-02-01T10:23:03;99460.25;;;3.05;100.00
36062;BME280;22123;52.412;20.970;2023-02-01T10:28:11;99444.84;;;3.09;100.00
36062;BME280;22123;52.412;20.970;2023-02-01T10:30:43;99377.22;;;2.66;100.00
36062;BME280;22123;52.412;20.970;2023-02-01T10:33:35;99451.09;;;3.18;100.00
36062;BME280;22123;52.412;20.970;2023-02-01T10:36:15;99448.44;;;3.18;100.00
36062;BME280;22123;52.412;20.970;2023-02-01T10:38:41;99414.69;;;3.00;100.00
36062;BME280;22123;52.412;20.970;2023-02-01T10:41:13;99438.56;;;3.28;100.00
36062;BME280;22123;52.412;20.970;2023-02-01T10:43:41;99335.16;;;2.61;100.00
36062;BME280;22123;52.412;20.970;2023-02-01T10:46:07;99447.16;;;3.40;100.00
36062;BME280;22123;52.412;20.970;2023-02-01T10:48:34;99327.25;;;2.69;100.00
36062;BME280;22123;52.412;20.970;2023-02-01T10:53:37;99344.69;;;2.82;100.00
36062;BME280;22123;52.412;20.970;2023-02-01T10:56:09;99397.91;;;3.18;100.00
36062;BME280;22123;52.412;20.970;2023-02-01T10:58:36;99390.75;;;3.00;100.00
36062;BME280;22123;52.412;20.970;2023-02-01T11:01:08;99450.44;;;3.52;100.00
36062;BME280;22123;52.412;20.970;2023-02-01T11:03:53;99359.97;;;3.16;100.00
36062;BME280;22123;52.412;20.970;2023-02-01T11:06:28;99416.47;;;3.27;100.00
36062;BME280;22123;52.412;20.970;2023-02-01T11:08:58;99417.22;;;3.38;100.00
36062;BME280;22123;52.412;20.970;2023-02-01T11:11:25;99372.59;;;3.13;100.00
36062;BME280;22123;52.412;20.970;2023-02-01T11:14:13;99390.91;;;3.17;100.00
36062;BME280;22123;52.412;20.970;2023-02-01T11:16:39;99327.66;;;2.92;100.00
36062;BME280;22123;52.412;20.970;2023-02-01T11:19:06;99432.81;;;3.51;100.00
36062;BME280;22123;52.412;20.970;2023-02-01T11:21:35;99410.38;;;3.35;100.00
36062;BME280;22123;52.412;20.970;2023-02-01T11:24:03;99438.00;;;3.52;100.00
36062;BME280;22123;52.412;20.970;2023-02-01T11:26:30;99440.09;;;3.48;100.00
36062;BME280;22123;52.412;20.970;2023-02-01T11:29:05;99396.22;;;3.17;100.00
36062;BME280;22123;52.412;20.970;2023-02-01T11:31:37;99430.84;;;3.53;100.00
36062;BME280;22123;52.412;20.970;2023-02-01T11:36:35;99379.97;;;3.20;100.00
36062;BME280;22123;52.412;20.970;2023-02-01T11:41:34;99414.88;;;3.35;100.00
36062;BME280;22123;52.412;20.970;2023-02-01T11:44:01;99393.56;;;3.17;100.00
36062;BME280;22123;52.412;20.970;2023-02-01T11:46:41;99334.72;;;2.84;100.00
36062;BME280;22123;52.412;20.970;2023-02-01T11:49:23;99357.63;;;2.94;100.00
36062;BME280;22123;52.412;20.970;2023-02-01T12:08:34;99430.69;;;3.72;100.00
36062;BME280;22123;52.412;20.970;2023-02-01T12:14:15;99436.09;;;3.62;100.00
36062;BME280;22123;52.412;20.970;2023-02-01T12:17:22;99455.59;;;3.53;100.00
36062;BME280;22123;52.412;20.970;2023-02-01T12:28:02;99366.31;;;2.87;100.00
36062;BME280;22123;52.412;20.970;2023-02-01T12:30:39;99420.03;;;3.36;100.00
36062;BME280;22123;52.412;20.970;2023-02-01T12:33:30;99414.94;;;3.43;100.00
36062;BME280;22123;52.412;20.970;2023-02-01T12:41:43;99373.19;;;3.61;100.00
36062;BME280;22123;52.412;20.970;2023-02-01T12:44:20;99325.59;;;3.58;100.00
36062;BME280;22123;52.412;20.970;2023-02-01T12:46:54;99416.84;;;4.39;100.00
36062;BME280;22123;52.412;20.970;2023-02-01T12:52:27;99370.22;;;4.17;100.00
36062;BME280;22123;52.412;20.970;2023-02-01T12:58:14;99328.66;;;3.90;100.00
36062;BME280;22123;52.412;20.970;2023-02-01T13:00:47;99424.56;;;4.50;100.00
36062;BME280;22123;52.412;20.970;2023-02-01T13:03:29;99419.66;;;4.38;100.00
36062;BME280;22123;52.412;20.970;2023-02-01T13:08:49;99389.19;;;4.14;100.00
36062;BME280;22123;52.412;20.970;2023-02-01T13:11:30;99422.31;;;4.38;100.00
36062;BME280;22123;52.412;20.970;2023-02-01T13:16:48;99423.88;;;4.22;100.00
36062;BME280;22123;52.412;20.970;2023-02-01T13:19:20;99360.53;;;3.81;100.00
36062;BME280;22123;52.412;20.970;2023-02-01T13:21:51;99353.94;;;3.68;100.00
36062;BME280;22123;52.412;20.970;2023-02-01T13:24:42;99423.72;;;3.97;100.00
36062;BME280;22123;52.412;20.970;2023-02-01T13:27:13;99362.63;;;3.52;100.00
36062;BME280;22123;52.412;20.970;2023-02-01T13:32:42;99424.75;;;3.78;100.00
36062;BME280;22123;52.412;20.970;2023-02-01T13:38:32;99411.34;;;3.70;100.00
36062;BME280;22123;52.412;20.970;2023-02-01T13:43:51;99367.72;;;3.27;100.00
36062;BME280;22123;52.412;20.970;2023-02-01T13:46:18;99352.53;;;3.19;100.00
36062;BME280;22123;52.412;20.970;2023-02-01T13:48:54;99345.03;;;3.15;100.00
36062;BME280;22123;52.412;20.970;2023-02-01T13:51:37;99352.53;;;3.19;100.00
36062;BME280;22123;52.412;20.970;2023-02-01T13:54:06;99420.94;;;3.63;100.00
36062;BME280;22123;52.412;20.970;2023-02-01T13:56:41;99367.50;;;3.38;100.00
36062;BME280;22123;52.412;20.970;2023-02-01T14:05:08;99427.56;;;3.77;100.00
36062;BME280;22123;52.412;20.970;2023-02-01T14:07:34;99345.63;;;3.26;100.00
36062;BME280;22123;52.412;20.970;2023-02-01T14:16:15;99416.38;;;3.73;100.00
36062;BME280;22123;52.412;20.970;2023-02-01T14:21:20;99432.66;;;3.70;100.00
36062;BME280;22123;52.412;20.970;2023-02-01T14:29:18;99354.44;;;3.09;100.00
36062;BME280;22123;52.412;20.970;2023-02-01T14:42:47;99431.09;;;3.31;100.00
36062;BME280;22123;52.412;20.970;2023-02-01T15:04:05;99431.06;;;3.23;100.00
36062;BME280;22123;52.412;20.970;2023-02-01T15:06:38;99433.25;;;3.28;100.00
36062;BME280;22123;52.412;20.970;2023-02-01T15:09:15;99380.16;;;2.90;100.00
36062;BME280;22123;52.412;20.970;2023-02-01T15:12:15;99441.53;;;3.25;100.00
36062;BME280;22123;52.412;20.970;2023-02-01T15:14:45;99372.38;;;2.79;100.00
36062;BME280;22123;52.412;20.970;2023-02-01T15:17:27;99353.91;;;2.59;100.00
36062;BME280;22123;52.412;20.970;2023-02-01T15:20:01;99387.31;;;2.90;100.00
36062;BME280;22123;52.412;20.970;2023-02-01T15:22:29;99362.50;;;2.71;100.00
36062;BME280;22123;52.412;20.970;2023-02-01T15:24:57;99372.28;;;2.71;100.00
36062;BME280;22123;52.412;20.970;2023-02-01T15:27:24;99442.00;;;3.20;100.00
36062;BME280;22123;52.412;20.970;2023-02-01T15:29:50;99369.78;;;2.69;100.00